ACA852 CYYZ-EGLL
Flight info
| Callsign | ACA852 |
|---|---|
| Flight time | N/A |
| Altitude | 33000 |
| Route | VERDO7 LORKA Q907 MIILS/N0487F350 N513A ALLRY/M084F350 DCT 51N050W 53N040W 55N030W 56N020W DCT PIKIL DCT SOVED/N0480F370 DCT LUTOV DCT KELLY L10 WAL UY53 NUGRA |
| Aircraft | B77W/H-SDE1E2E3FGHIJ2J3J4J5M1RWXY/LB1D1 |
Departure
| Time | 2026-05-03 20:55 |
|---|---|
| Airport | Toronto Pearson International Airport (CYYZ) |
Arrival
| Time | N/A |
|---|---|
| Airport | London Heathrow Airport (EGLL) |
| Time | Latitude | Longitude | Altitude | Speed | Heading |
|---|---|---|---|---|---|
| 2026-05-03 20:15 | 43.67763 | -79.61329 | 566 ft | 0 kts | 134° |
| 2026-05-03 20:43 | 43.67764 | -79.61331 | 566 ft | 2 kts | 134° |
| 2026-05-03 20:43 | 43.67782 | -79.61353 | 575 ft | 4 kts | 137° |
| 2026-05-03 20:44 | 43.67802 | -79.61374 | 574 ft | 4 kts | 157° |
| 2026-05-03 20:44 | 43.67827 | -79.61381 | 575 ft | 4 kts | 192° |
| 2026-05-03 20:44 | 43.67848 | -79.61367 | 575 ft | 3 kts | 225° |
| 2026-05-03 20:44 | 43.67851 | -79.61364 | 575 ft | 0 kts | 226° |
| 2026-05-03 20:46 | 43.67847 | -79.61368 | 575 ft | 3 kts | 226° |
| 2026-05-03 20:46 | 43.67821 | -79.61408 | 575 ft | 7 kts | 227° |
| 2026-05-03 20:47 | 43.67784 | -79.61463 | 574 ft | 8 kts | 227° |
| 2026-05-03 20:47 | 43.67745 | -79.61523 | 574 ft | 8 kts | 229° |
| 2026-05-03 20:47 | 43.67707 | -79.61582 | 571 ft | 8 kts | 227° |
| 2026-05-03 20:47 | 43.67666 | -79.61644 | 574 ft | 12 kts | 228° |
| 2026-05-03 20:48 | 43.67650 | -79.61711 | 571 ft | 7 kts | 291° |
| 2026-05-03 20:48 | 43.67689 | -79.61810 | 573 ft | 15 kts | 308° |
| 2026-05-03 20:48 | 43.67779 | -79.61935 | 575 ft | 23 kts | 319° |
| 2026-05-03 20:48 | 43.67909 | -79.62068 | 574 ft | 17 kts | 334° |
| 2026-05-03 20:49 | 43.67992 | -79.62130 | 570 ft | 6 kts | 319° |
| 2026-05-03 20:49 | 43.68050 | -79.62201 | 574 ft | 19 kts | 317° |
| 2026-05-03 20:49 | 43.68157 | -79.62337 | 571 ft | 20 kts | 318° |
| 2026-05-03 20:49 | 43.68236 | -79.62437 | 573 ft | 12 kts | 317° |
| 2026-05-03 20:50 | 43.68300 | -79.62515 | 569 ft | 14 kts | 319° |
| 2026-05-03 20:50 | 43.68393 | -79.62622 | 570 ft | 21 kts | 321° |
| 2026-05-03 20:50 | 43.68506 | -79.62770 | 574 ft | 25 kts | 313° |
| 2026-05-03 20:50 | 43.68642 | -79.62956 | 573 ft | 30 kts | 317° |
| 2026-05-03 20:51 | 43.68778 | -79.63140 | 573 ft | 26 kts | 316° |
| 2026-05-03 20:51 | 43.68877 | -79.63271 | 572 ft | 17 kts | 316° |
| 2026-05-03 20:51 | 43.68959 | -79.63373 | 575 ft | 15 kts | 319° |
| 2026-05-03 20:51 | 43.69007 | -79.63433 | 571 ft | 8 kts | 317° |
| 2026-05-03 20:52 | 43.69072 | -79.63507 | 573 ft | 12 kts | 334° |
| 2026-05-03 20:52 | 43.69150 | -79.63487 | 578 ft | 12 kts | 31° |
| 2026-05-03 20:52 | 43.69252 | -79.63420 | 572 ft | 18 kts | 6° |
| 2026-05-03 20:52 | 43.69329 | -79.63402 | 572 ft | 10 kts | 17° |
| 2026-05-03 20:53 | 43.69397 | -79.63361 | 574 ft | 11 kts | 27° |
| 2026-05-03 20:53 | 43.69463 | -79.63350 | 575 ft | 7 kts | 327° |
| 2026-05-03 20:53 | 43.69466 | -79.63412 | 577 ft | 7 kts | 244° |
| 2026-05-03 20:53 | 43.69433 | -79.63471 | 573 ft | 12 kts | 230° |
| 2026-05-03 20:54 | 43.69328 | -79.63641 | 575 ft | 40 kts | 227° |
| 2026-05-03 20:54 | 43.68344 | -79.65059 | 575 ft | 157 kts | 227° |
| 2026-05-03 20:54 | 43.67676 | -79.66069 | 715 ft | 179 kts | 227° |
| 2026-05-03 20:55 | 43.66796 | -79.67391 | 1115 ft | 184 kts | 229° |
| 2026-05-03 20:55 | 43.65912 | -79.68533 | 2088 ft | 174 kts | 228° |
| 2026-05-03 20:55 | 43.64959 | -79.69653 | 2435 ft | 192 kts | 227° |
| 2026-05-03 20:55 | 43.63887 | -79.70935 | 2643 ft | 215 kts | 227° |
| 2026-05-03 20:56 | 43.62716 | -79.72348 | 3018 ft | 229 kts | 227° |
| 2026-05-03 20:56 | 43.61486 | -79.73831 | 3628 ft | 236 kts | 227° |
| 2026-05-03 20:56 | 43.60253 | -79.75333 | 3957 ft | 241 kts | 225° |
| 2026-05-03 20:56 | 43.58740 | -79.76330 | 4479 ft | 254 kts | 192° |
| 2026-05-03 20:57 | 43.56923 | -79.76020 | 5018 ft | 275 kts | 165° |
| 2026-05-03 20:57 | 43.55217 | -79.74654 | 5642 ft | 292 kts | 146° |
| 2026-05-03 20:57 | 43.53853 | -79.72543 | 6320 ft | 303 kts | 122° |
| 2026-05-03 20:57 | 43.53068 | -79.69816 | 6940 ft | 309 kts | 110° |
| 2026-05-03 20:58 | 43.52385 | -79.66977 | 7508 ft | 316 kts | 110° |
| 2026-05-03 20:58 | 43.51663 | -79.64127 | 8122 ft | 320 kts | 111° |
| 2026-05-03 20:58 | 43.50905 | -79.61226 | 8737 ft | 324 kts | 111° |
| 2026-05-03 20:58 | 43.50444 | -79.58185 | 9193 ft | 329 kts | 86° |
| 2026-05-03 20:59 | 43.50874 | -79.55117 | 9698 ft | 328 kts | 69° |
| 2026-05-03 20:59 | 43.51505 | -79.52078 | 10138 ft | 331 kts | 70° |
| 2026-05-03 20:59 | 43.52080 | -79.49181 | 10476 ft | 331 kts | 71° |
| 2026-05-03 20:59 | 43.52674 | -79.46117 | 10836 ft | 331 kts | 71° |
| 2026-05-03 21:00 | 43.53315 | -79.43073 | 11200 ft | 330 kts | 65° |
| 2026-05-03 21:00 | 43.53866 | -79.41111 | 11450 ft | 336 kts | 61° |
| 2026-05-03 21:00 | 43.55280 | -79.37069 | 11669 ft | 364 kts | 58° |
| 2026-05-03 21:00 | 43.56470 | -79.33906 | 11874 ft | 387 kts | 58° |
| 2026-05-03 21:01 | 43.57741 | -79.30532 | 12228 ft | 404 kts | 58° |
| 2026-05-03 21:01 | 43.59034 | -79.27052 | 12910 ft | 412 kts | 59° |
| 2026-05-03 21:01 | 43.60334 | -79.23507 | 13739 ft | 417 kts | 59° |
| 2026-05-03 21:01 | 43.61640 | -79.19913 | 14560 ft | 419 kts | 59° |
| 2026-05-03 21:02 | 43.62945 | -79.16304 | 15406 ft | 421 kts | 59° |
| 2026-05-03 21:02 | 43.64247 | -79.12693 | 16210 ft | 424 kts | 59° |
| 2026-05-03 21:02 | 43.65565 | -79.09034 | 16985 ft | 428 kts | 59° |
| 2026-05-03 21:02 | 43.66660 | -79.06047 | 17625 ft | 429 kts | 53° |
| 2026-05-03 21:03 | 43.68105 | -79.02420 | 18403 ft | 433 kts | 59° |
| 2026-05-03 21:03 | 43.69414 | -78.98715 | 19106 ft | 436 kts | 60° |
| 2026-05-03 21:03 | 43.70716 | -78.94911 | 19704 ft | 442 kts | 60° |
| 2026-05-03 21:03 | 43.72044 | -78.91062 | 20300 ft | 446 kts | 60° |
| 2026-05-03 21:04 | 43.73406 | -78.87181 | 20931 ft | 449 kts | 60° |
| 2026-05-03 21:04 | 43.74796 | -78.83278 | 21578 ft | 453 kts | 59° |
| 2026-05-03 21:04 | 43.76159 | -78.79466 | 22168 ft | 456 kts | 59° |
| 2026-05-03 21:04 | 43.77499 | -78.75711 | 22748 ft | 460 kts | 59° |
| 2026-05-03 21:05 | 43.78911 | -78.71694 | 23007 ft | 468 kts | 60° |
| 2026-05-03 21:05 | 43.80301 | -78.67685 | 23601 ft | 470 kts | 60° |
| 2026-05-03 21:05 | 43.81705 | -78.63605 | 24292 ft | 468 kts | 60° |
| 2026-05-03 21:05 | 43.83101 | -78.59541 | 24847 ft | 469 kts | 60° |
| 2026-05-03 21:06 | 43.84496 | -78.55483 | 25285 ft | 473 kts | 60° |
| 2026-05-03 21:06 | 43.85918 | -78.51349 | 25665 ft | 479 kts | 60° |